createdAt,value
2018-06-09T00:00:34.529Z,38.03
2018-06-09T00:02:36.936Z,25.53
2018-06-09T00:04:39.341Z,29.70
2018-06-09T00:06:41.414Z,34.20
2018-06-09T00:08:43.529Z,30.30
2018-06-09T00:10:45.612Z,34.57
2018-06-09T00:12:47.705Z,30.37
2018-06-09T00:14:49.966Z,32.37
2018-06-09T00:16:52.105Z,34.20
2018-06-09T00:18:54.704Z,34.00
2018-06-09T00:20:57.234Z,30.73
2018-06-09T00:22:59.677Z,31.17
2018-06-09T00:25:01.873Z,30.03
2018-06-09T00:27:04.062Z,28.00
2018-06-09T00:29:06.194Z,34.70
2018-06-09T00:31:08.553Z,36.60
2018-06-09T00:33:10.879Z,32.90
2018-06-09T00:35:13.058Z,30.97
2018-06-09T00:37:15.178Z,31.50
2018-06-09T00:39:17.324Z,34.13
2018-06-09T00:41:19.486Z,31.97
2018-06-09T00:43:21.842Z,37.10
2018-06-09T00:45:24.025Z,34.80
2018-06-09T00:47:26.150Z,34.77
2018-06-09T00:49:28.240Z,33.00
2018-06-09T00:51:30.642Z,33.40
2018-06-09T00:53:33.057Z,34.93
2018-06-09T00:55:35.541Z,44.23
2018-06-09T00:57:37.808Z,32.83
2018-06-09T00:59:39.906Z,27.37
2018-06-09T01:01:42.172Z,34.33
2018-06-09T01:03:44.410Z,39.70
2018-06-09T01:05:46.501Z,37.53
2018-06-09T01:07:48.616Z,33.70
2018-06-09T01:09:50.954Z,33.57
2018-06-09T01:11:53.095Z,40.20
2018-06-09T01:13:55.378Z,38.63
2018-06-09T01:15:57.632Z,45.57
2018-06-09T01:17:59.762Z,41.77
2018-06-09T01:20:01.992Z,46.10
2018-06-09T01:22:04.638Z,38.20
2018-06-09T01:24:06.773Z,36.40
2018-06-09T01:26:08.873Z,41.97
2018-06-09T01:28:10.952Z,31.47
2018-06-09T01:30:13.048Z,35.17
2018-06-09T01:32:15.229Z,29.23
2018-06-09T01:34:17.627Z,33.00
2018-06-09T01:36:19.793Z,31.67
2018-06-09T01:38:21.885Z,29.90
2018-06-09T01:40:23.982Z,32.13
2018-06-09T01:42:26.174Z,43.80
2018-06-09T01:44:28.330Z,43.53
2018-06-09T01:46:30.783Z,31.07
2018-06-09T01:48:32.961Z,30.43
2018-06-09T01:50:35.033Z,37.63
2018-06-09T01:52:37.392Z,39.20
2018-06-09T01:54:40.283Z,34.30
2018-06-09T01:56:43.173Z,34.80
2018-06-09T01:58:45.759Z,37.37
2018-06-09T02:00:49.279Z,33.23
2018-06-09T02:02:51.489Z,33.60
2018-06-09T02:04:53.601Z,37.00
2018-06-09T02:06:55.745Z,46.17
2018-06-09T02:08:58.166Z,38.77
2018-06-09T02:11:00.369Z,37.03
2018-06-09T02:13:02.532Z,35.00
2018-06-09T02:15:04.683Z,32.87
2018-06-09T02:17:06.987Z,36.93
2018-06-09T02:19:09.123Z,35.17
2018-06-09T02:21:11.233Z,42.37
2018-06-09T02:23:13.354Z,32.27
2018-06-09T02:25:15.595Z,38.47
2018-06-09T02:27:17.777Z,36.73
2018-06-09T02:29:19.994Z,38.00
2018-06-09T02:31:22.156Z,35.90
2018-06-09T02:33:24.557Z,32.10
2018-06-09T02:35:26.653Z,33.00
2018-06-09T02:37:28.749Z,37.53
2018-06-09T02:39:31.074Z,35.00
2018-06-09T02:41:33.359Z,44.27
2018-06-09T02:43:35.480Z,31.87
2018-06-09T02:45:37.567Z,34.37
2018-06-09T02:47:39.681Z,32.47
2018-06-09T02:49:41.794Z,33.40
2018-06-09T02:51:43.905Z,28.30
2018-06-09T02:53:45.981Z,33.87
2018-06-09T02:55:48.112Z,28.57
2018-06-09T02:57:50.213Z,27.20
2018-06-09T02:59:52.309Z,26.50
2018-06-09T03:01:54.387Z,29.13
2018-06-09T03:03:56.523Z,30.87
2018-06-09T03:05:58.694Z,30.93
2018-06-09T03:08:00.773Z,31.00
2018-06-09T03:10:02.866Z,30.67
2018-06-09T03:12:04.992Z,30.37
2018-06-09T03:14:07.210Z,27.90
2018-06-09T03:16:09.449Z,24.57
2018-06-09T03:18:11.528Z,29.03
2018-06-09T03:20:13.617Z,27.63
2018-06-09T03:22:15.900Z,32.40
2018-06-09T03:24:18.135Z,23.83
2018-06-09T03:26:20.476Z,29.23
2018-06-09T03:28:22.557Z,31.93
2018-06-09T03:30:24.720Z,27.50
2018-06-09T03:32:26.857Z,31.80
2018-06-09T03:34:28.982Z,35.47
2018-06-09T03:36:31.121Z,39.17
2018-06-09T03:38:33.201Z,28.30
2018-06-09T03:40:35.341Z,29.47
2018-06-09T03:42:37.472Z,28.70
2018-06-09T03:44:39.565Z,22.67
2018-06-09T03:46:41.858Z,38.77
2018-06-09T03:48:43.972Z,26.20
2018-06-09T03:50:46.152Z,27.30
2018-06-09T03:52:48.312Z,24.13
2018-06-09T03:54:50.416Z,25.83
2018-06-09T03:56:52.562Z,22.70
2018-06-09T03:58:54.733Z,30.73
2018-06-09T04:00:56.912Z,27.53
2018-06-09T04:02:59.253Z,21.57
2018-06-09T04:05:01.345Z,24.77
2018-06-09T04:07:03.526Z,27.63
2018-06-09T04:09:06.733Z,34.37
2018-06-09T04:11:08.844Z,24.03
2018-06-09T04:13:10.916Z,24.57
2018-06-09T04:15:13.036Z,44.37
2018-06-09T04:17:15.136Z,32.77
2018-06-09T04:19:17.402Z,25.40
2018-06-09T04:21:19.573Z,26.77
2018-06-09T04:23:22.661Z,23.00
2018-06-09T04:25:24.844Z,31.03
2018-06-09T04:27:26.957Z,22.97
2018-06-09T04:29:29.104Z,22.47
2018-06-09T04:31:31.369Z,24.87
2018-06-09T04:33:33.607Z,26.80
2018-06-09T04:35:35.890Z,29.63
2018-06-09T04:37:38.029Z,30.07
2018-06-09T04:39:40.165Z,21.27
2018-06-09T04:41:42.250Z,29.73
2018-06-09T04:43:44.349Z,20.40
2018-06-09T04:45:46.420Z,22.00
2018-06-09T04:47:48.940Z,29.07
2018-06-09T04:49:51.386Z,26.53
2018-06-09T04:51:53.733Z,25.63
2018-06-09T04:53:55.842Z,23.80
2018-06-09T04:55:58.323Z,28.47
2018-06-09T04:58:00.728Z,31.10
2018-06-09T05:00:03.035Z,21.00
2018-06-09T05:02:05.145Z,19.30
2018-06-09T05:04:07.205Z,30.67
2018-06-09T05:06:09.337Z,24.13
2018-06-09T05:08:11.656Z,19.87
2018-06-09T05:10:13.759Z,20.40
2018-06-09T05:12:15.897Z,32.50
2018-06-09T05:14:17.986Z,24.77
2018-06-09T05:16:20.182Z,19.00
2018-06-09T05:18:22.264Z,17.43
2018-06-09T05:20:24.372Z,20.03
2018-06-09T05:22:26.532Z,17.67
2018-06-09T05:24:28.637Z,19.20
2018-06-09T05:26:30.782Z,22.83
2018-06-09T05:28:32.919Z,17.43
2018-06-09T05:30:35.026Z,20.40
2018-06-09T05:32:37.099Z,17.00
2018-06-09T05:34:39.164Z,27.03
2018-06-09T05:36:41.248Z,22.10
2018-06-09T05:38:43.389Z,14.70
2018-06-09T05:40:45.530Z,17.13
2018-06-09T05:42:47.852Z,20.00
2018-06-09T05:44:50.078Z,17.87
2018-06-09T05:46:52.193Z,17.13
2018-06-09T05:48:54.254Z,20.20
2018-06-09T05:50:56.333Z,19.90
2018-06-09T05:52:58.424Z,18.83
2018-06-09T05:55:00.541Z,19.40
2018-06-09T05:57:02.698Z,18.03
2018-06-09T05:59:04.765Z,19.73
2018-06-09T06:01:07.312Z,21.13
2018-06-09T06:03:09.572Z,21.30
2018-06-09T06:05:11.613Z,16.47
2018-06-09T06:07:13.769Z,19.87
2018-06-09T06:09:15.988Z,20.20
2018-06-09T06:11:18.055Z,21.03
2018-06-09T06:13:20.166Z,20.50
2018-06-09T06:15:22.230Z,20.13
2018-06-09T06:17:24.373Z,19.00
2018-06-09T06:19:26.510Z,25.43
2018-06-09T06:21:28.665Z,20.03
2018-06-09T06:23:30.853Z,18.63
2018-06-09T06:25:33.016Z,32.90
2018-06-09T06:27:35.109Z,24.63
2018-06-09T06:29:37.174Z,20.73
2018-06-09T06:31:39.247Z,26.40
2018-06-09T06:33:41.712Z,21.60
2018-06-09T06:35:44.105Z,22.07
2018-06-09T06:37:46.233Z,41.57
2018-06-09T06:39:48.289Z,32.83
2018-06-09T06:41:50.433Z,23.50
2018-06-09T06:43:52.581Z,30.93
2018-06-09T06:45:54.649Z,29.03
2018-06-09T06:47:56.730Z,24.83
2018-06-09T06:49:58.777Z,23.40
2018-06-09T06:52:00.845Z,29.97
2018-06-09T06:54:02.967Z,25.08
2018-06-09T06:56:05.108Z,27.30
2018-06-09T06:58:07.330Z,40.23
2018-06-09T07:00:09.453Z,24.93
2018-06-09T07:02:11.605Z,22.10
2018-06-09T07:04:13.794Z,24.40
2018-06-09T07:06:16.853Z,27.60
2018-06-09T07:08:19.218Z,22.80
2018-06-09T07:10:21.321Z,23.07
2018-06-09T07:12:23.400Z,24.23
2018-06-09T07:14:25.502Z,25.37
2018-06-09T07:16:27.625Z,20.80
2018-06-09T07:18:29.727Z,23.60
2018-06-09T07:20:31.820Z,24.07
2018-06-09T07:22:33.921Z,21.33
2018-06-09T07:24:35.992Z,20.30
2018-06-09T07:26:38.045Z,26.30
2018-06-09T07:28:40.127Z,29.53
2018-06-09T07:30:42.188Z,20.80
2018-06-09T07:32:45.485Z,34.57
2018-06-09T07:34:47.609Z,30.40
2018-06-09T07:36:49.876Z,24.17
2018-06-09T07:38:52.125Z,20.87
2018-06-09T07:40:54.212Z,35.43
2018-06-09T07:42:56.326Z,27.03
2018-06-09T07:44:58.432Z,17.43
2018-06-09T07:47:00.572Z,19.77
2018-06-09T07:49:03.529Z,17.70
2018-06-09T07:51:05.630Z,20.90
2018-06-09T07:53:07.919Z,18.70
2018-06-09T07:55:10.094Z,22.63
2018-06-09T07:57:12.804Z,22.80
2018-06-09T07:59:15.699Z,28.00
2018-06-09T08:01:17.849Z,32.37
2018-06-09T08:03:20.010Z,20.52
2018-06-09T08:05:22.181Z,18.30
2018-06-09T08:07:24.447Z,23.30
2018-06-09T08:09:26.583Z,24.50
2018-06-09T08:11:28.772Z,22.90
2018-06-09T08:13:30.832Z,25.23
2018-06-09T08:15:33.358Z,18.00
2018-06-09T08:17:39.807Z,17.83
2018-06-09T08:19:41.950Z,19.57
2018-06-09T08:21:44.070Z,24.93
2018-06-09T08:23:46.269Z,17.73
2018-06-09T08:25:48.659Z,20.57
2018-06-09T08:27:50.804Z,22.40
2018-06-09T08:29:52.901Z,18.40
2018-06-09T08:31:55.050Z,28.80
2018-06-09T08:33:57.207Z,19.07
2018-06-09T08:35:59.569Z,21.87
2018-06-09T08:38:01.674Z,14.87
2018-06-09T08:40:05.028Z,25.63
2018-06-09T08:42:07.365Z,23.03
2018-06-09T08:44:11.333Z,23.33
2018-06-09T08:46:13.791Z,18.00
2018-06-09T08:48:16.096Z,25.50
2018-06-09T08:50:19.353Z,21.83
2018-06-09T08:52:21.553Z,18.63
2018-06-09T08:54:23.879Z,20.53
2018-06-09T08:56:26.068Z,14.90
2018-06-09T08:58:28.256Z,16.90
2018-06-09T09:00:30.432Z,14.23
2018-06-09T09:02:32.526Z,17.60
2018-06-09T09:04:34.671Z,13.93
2018-06-09T09:06:37.014Z,13.00
2018-06-09T09:08:39.105Z,16.13
2018-06-09T09:10:41.338Z,14.93
2018-06-09T09:12:43.426Z,13.47
2018-06-09T09:14:45.708Z,24.03
2018-06-09T09:16:47.823Z,14.57
2018-06-09T09:18:50.109Z,18.33
2018-06-09T09:20:52.279Z,13.03
2018-06-09T09:22:54.421Z,16.80
2018-06-09T09:24:57.343Z,11.13
2018-06-09T09:26:59.462Z,13.27
2018-06-09T09:29:01.710Z,18.33
2018-06-09T09:31:03.884Z,21.17
2018-06-09T09:33:06.423Z,9.20
2018-06-09T09:35:08.537Z,10.85
2018-06-09T09:37:36.938Z,13.90
2018-06-09T09:39:39.460Z,7.67
2018-06-09T09:41:42.051Z,10.10
2018-06-09T09:44:04.516Z,8.90
2018-06-09T09:46:14.308Z,13.00
2018-06-09T09:50:38.118Z,11.03
2018-06-09T09:52:41.323Z,7.33
2018-06-09T09:55:07.402Z,10.37
2018-06-09T09:57:09.715Z,10.83
2018-06-09T09:59:12.517Z,11.20
2018-06-09T10:01:19.059Z,9.80
2018-06-09T10:06:15.092Z,17.23
2018-06-09T10:08:18.014Z,7.80
2018-06-09T10:10:23.913Z,10.33
2018-06-09T10:12:44.922Z,16.10
2018-06-09T10:14:47.116Z,11.83
2018-06-09T10:17:12.394Z,12.97
2018-06-09T10:19:14.701Z,24.70
2018-06-09T10:23:43.853Z,9.73
2018-06-09T10:25:47.846Z,12.53
2018-06-09T10:27:50.034Z,12.40
2018-06-09T10:29:52.326Z,15.50
2018-06-09T10:31:54.691Z,12.80
2018-06-09T10:34:18.236Z,7.40
2018-06-09T10:49:43.318Z,16.83
2018-06-09T10:51:45.543Z,8.93
2018-06-09T10:53:47.640Z,16.33
2018-06-09T10:55:49.746Z,12.27
2018-06-09T10:57:51.987Z,16.80
2018-06-09T10:59:54.057Z,13.93
2018-06-09T11:01:56.135Z,14.63
2018-06-09T11:03:58.219Z,10.73
2018-06-09T11:06:00.503Z,8.47
2018-06-09T11:08:02.750Z,9.03
2018-06-09T11:10:05.076Z,14.80
2018-06-09T11:12:07.261Z,21.60
2018-06-09T11:14:10.118Z,15.73
2018-06-09T11:16:12.235Z,14.70
2018-06-09T11:18:15.365Z,18.67
2018-06-09T11:20:17.457Z,10.50
2018-06-09T11:22:19.514Z,13.97
2018-06-09T11:24:21.680Z,19.50
2018-06-09T11:26:23.889Z,11.50
2018-06-09T11:28:26.116Z,10.50
2018-06-09T11:30:28.229Z,11.57
2018-06-09T11:32:30.391Z,17.50
2018-06-09T11:34:32.667Z,14.90
2018-06-09T11:36:34.882Z,7.10
2018-06-09T11:38:37.039Z,8.73
2018-06-09T11:40:39.126Z,11.10
2018-06-09T11:42:41.476Z,7.80
2018-06-09T11:44:43.961Z,10.40
2018-06-09T11:46:46.188Z,13.90
2018-06-09T11:48:48.305Z,18.70
2018-06-09T11:50:50.399Z,12.53
2018-06-09T11:52:52.494Z,10.50
2018-06-09T11:54:54.566Z,8.40
2018-06-09T11:56:56.763Z,11.50
2018-06-09T11:58:58.866Z,13.53
2018-06-09T12:01:01.166Z,8.07
2018-06-09T12:03:03.303Z,10.70
2018-06-09T12:05:05.612Z,13.27
2018-06-09T12:07:07.745Z,9.60
2018-06-09T12:09:10.643Z,7.27
2018-06-09T12:11:13.486Z,9.90
2018-06-09T12:13:15.804Z,7.60
2018-06-09T12:15:18.074Z,9.57
2018-06-09T12:17:20.621Z,11.87
2018-06-09T12:19:22.846Z,9.63
2018-06-09T12:21:25.223Z,17.67
2018-06-09T12:23:27.457Z,10.73
2018-06-09T12:25:29.683Z,7.83
2018-06-09T12:27:31.777Z,11.60
2018-06-09T12:29:33.867Z,7.63
2018-06-09T12:31:35.937Z,17.83
2018-06-09T12:33:38.344Z,9.40
2018-06-09T12:35:40.509Z,9.33
2018-06-09T12:37:42.596Z,14.30
2018-06-09T12:39:44.682Z,9.10
2018-06-09T12:41:46.845Z,11.17
2018-06-09T12:43:48.929Z,13.40
2018-06-09T12:45:51.188Z,9.43
2018-06-09T12:47:53.294Z,28.10
2018-06-09T12:49:55.531Z,8.20
2018-06-09T12:51:57.795Z,8.57
2018-06-09T12:53:59.917Z,17.57
2018-06-09T12:56:02.007Z,22.10
2018-06-09T12:58:04.242Z,12.90
2018-06-09T13:00:06.510Z,10.27
2018-06-09T13:02:08.645Z,8.20
2018-06-09T13:04:10.896Z,8.10
2018-06-09T13:06:13.015Z,14.80
2018-06-09T13:08:15.261Z,17.63
2018-06-09T13:10:17.381Z,12.30
2018-06-09T13:12:19.493Z,8.10
2018-06-09T13:14:21.578Z,15.17
2018-06-09T13:16:24.501Z,12.93
2018-06-09T13:18:26.621Z,16.47
2018-06-09T13:20:29.429Z,9.57
2018-06-09T13:22:31.554Z,13.60
2018-06-09T13:24:33.771Z,9.90
2018-06-09T13:26:35.861Z,14.10
2018-06-09T13:28:37.997Z,13.17
2018-06-09T13:30:40.086Z,8.83
2018-06-09T13:32:42.193Z,13.00
2018-06-09T13:34:44.300Z,12.30
2018-06-09T13:36:46.410Z,15.20
2018-06-09T13:38:48.552Z,15.37
2018-06-09T13:40:50.648Z,14.90
2018-06-09T13:42:52.952Z,14.00
2018-06-09T13:44:55.210Z,7.43
2018-06-09T13:46:57.446Z,12.30
2018-06-09T13:48:59.544Z,12.70
2018-06-09T13:51:01.729Z,13.50
2018-06-09T13:53:03.861Z,10.93
2018-06-09T13:55:05.954Z,9.43
2018-06-09T13:57:08.224Z,8.93
2018-06-09T13:59:10.487Z,31.00
2018-06-09T14:01:12.569Z,11.63
2018-06-09T14:03:14.649Z,9.23
2018-06-09T14:05:16.753Z,8.10
2018-06-09T14:07:18.835Z,13.33
2018-06-09T14:09:21.109Z,15.13
2018-06-09T14:11:23.481Z,12.27
2018-06-09T14:13:25.699Z,15.97
2018-06-09T14:15:28.036Z,9.80
2018-06-09T14:17:30.125Z,13.73
2018-06-09T14:19:32.237Z,7.97
2018-06-09T14:21:34.462Z,8.23
2018-06-09T14:23:36.577Z,18.30
2018-06-09T14:25:38.661Z,10.73
2018-06-09T14:27:40.837Z,14.30
2018-06-09T14:29:43.066Z,12.33
2018-06-09T14:31:45.162Z,14.37
2018-06-09T14:33:47.293Z,14.60
2018-06-09T14:35:49.386Z,12.50
2018-06-09T14:37:51.626Z,9.37
2018-06-09T14:39:53.737Z,9.90
2018-06-09T14:41:55.972Z,9.13
2018-06-09T14:43:58.110Z,11.83
2018-06-09T14:46:00.211Z,18.97
2018-06-09T14:48:02.428Z,8.30
2018-06-09T14:50:04.781Z,11.13
2018-06-09T14:52:06.887Z,18.13
2018-06-09T14:54:09.025Z,10.27
2018-06-09T14:56:11.121Z,11.07
2018-06-09T14:58:13.229Z,11.53
2018-06-09T15:00:15.462Z,13.10
2018-06-09T15:02:17.763Z,16.83
2018-06-09T15:04:19.868Z,13.37
2018-06-09T15:06:21.986Z,8.53
2018-06-09T15:08:24.295Z,12.73
2018-06-09T15:10:26.467Z,13.40
2018-06-09T15:12:28.666Z,9.47
2018-06-09T15:14:30.871Z,12.70
2018-06-09T15:16:33.011Z,13.60
2018-06-09T15:18:35.082Z,15.90
2018-06-09T15:20:37.168Z,14.53
2018-06-09T15:22:39.300Z,10.47
2018-06-09T15:24:41.349Z,11.57
2018-06-09T15:26:43.447Z,16.87
2018-06-09T15:28:45.744Z,11.22
2018-06-09T15:30:47.902Z,12.93
2018-06-09T15:32:50.008Z,19.27
2018-06-09T15:34:52.190Z,10.07
2018-06-09T15:36:54.345Z,13.93
2018-06-09T15:38:56.457Z,12.07
2018-06-09T15:40:58.549Z,18.40
2018-06-09T15:43:00.969Z,14.37
2018-06-09T15:45:03.157Z,10.23
2018-06-09T15:47:05.482Z,20.87
2018-06-09T15:49:07.880Z,12.97
2018-06-09T15:51:10.387Z,10.43
2018-06-09T15:53:13.399Z,10.83
2018-06-09T15:55:16.098Z,12.57
2018-06-09T15:57:19.076Z,21.30
2018-06-09T15:59:28.203Z,13.57
2018-06-09T16:01:37.706Z,15.43
2018-06-09T16:03:39.965Z,12.93
2018-06-09T16:05:45.721Z,12.00
2018-06-09T16:08:06.527Z,9.83
2018-06-09T16:13:20.641Z,9.13
2018-06-09T16:15:24.804Z,9.33
2018-06-09T16:17:26.954Z,11.93
2018-06-09T16:19:29.124Z,11.20
2018-06-09T16:21:31.225Z,13.80
2018-06-09T16:23:33.333Z,12.63
2018-06-09T16:25:35.483Z,9.20
2018-06-09T16:27:37.600Z,33.87
2018-06-09T16:29:39.709Z,19.00
2018-06-09T16:31:41.871Z,20.13
2018-06-09T16:33:46.757Z,15.63
2018-06-09T16:35:49.703Z,13.33
2018-06-09T16:37:53.006Z,15.07
2018-06-09T16:40:08.391Z,10.80
2018-06-09T16:42:10.804Z,20.30
2018-06-09T16:44:14.976Z,13.57
2018-06-09T16:46:17.996Z,11.73
2018-06-09T16:48:20.549Z,20.27
2018-06-09T16:50:38.421Z,23.77
2018-06-09T16:52:40.696Z,14.73
2018-06-09T16:57:10.702Z,15.77
2018-06-09T16:59:17.049Z,10.77
2018-06-09T17:01:28.798Z,13.67
2018-06-09T17:03:32.795Z,12.67
2018-06-09T17:05:38.022Z,11.60
2018-06-09T17:07:40.213Z,14.27
2018-06-09T17:09:42.326Z,23.50
2018-06-09T17:11:44.504Z,24.67
2018-06-09T17:13:46.648Z,11.07
2018-06-09T17:15:48.917Z,9.90
2018-06-09T17:17:51.337Z,14.00
2018-06-09T17:19:53.597Z,20.93
2018-06-09T17:21:55.738Z,6.90
2018-06-09T17:23:58.290Z,6.73
2018-06-09T17:26:00.373Z,10.60
2018-06-09T17:28:02.461Z,11.63
2018-06-09T17:30:04.785Z,14.57
2018-06-09T17:32:07.016Z,19.20
2018-06-09T17:34:09.146Z,10.13
2018-06-09T17:36:11.341Z,10.60
2018-06-09T17:38:13.471Z,12.90
2018-06-09T17:40:15.564Z,14.47
2018-06-09T17:42:17.889Z,9.70
2018-06-09T17:44:20.125Z,11.13
2018-06-09T17:46:22.296Z,10.93
2018-06-09T17:48:24.419Z,9.40
2018-06-09T17:50:26.597Z,11.40
2018-06-09T17:52:28.781Z,12.03
2018-06-09T17:54:30.875Z,11.80
2018-06-09T17:56:32.955Z,12.50
2018-06-09T17:58:35.013Z,12.43
2018-06-09T18:00:37.142Z,9.40
2018-06-09T18:02:39.249Z,17.73
2018-06-09T18:04:41.322Z,12.13
2018-06-09T18:06:43.449Z,13.23
2018-06-09T18:08:45.541Z,17.60
2018-06-09T18:10:47.656Z,11.67
2018-06-09T18:12:49.715Z,10.03
2018-06-09T18:14:51.840Z,22.43
2018-06-09T18:16:53.997Z,11.77
2018-06-09T18:18:56.137Z,18.37
2018-06-09T18:20:58.288Z,16.43
2018-06-09T18:23:00.473Z,16.23
2018-06-09T18:25:02.561Z,16.23
2018-06-09T18:27:04.670Z,18.07
2018-06-09T18:29:06.743Z,23.63
2018-06-09T18:31:08.820Z,12.47
2018-06-09T18:33:11.014Z,8.00
2018-06-09T18:35:13.120Z,14.80
2018-06-09T18:37:15.188Z,38.63
2018-06-09T18:39:17.253Z,24.73
2018-06-09T18:41:19.313Z,12.50
2018-06-09T18:43:21.445Z,20.00
2018-06-09T18:45:23.581Z,34.37
2018-06-09T18:47:25.783Z,26.43
2018-06-09T18:49:27.946Z,23.20
2018-06-09T18:51:30.077Z,22.23
2018-06-09T18:53:32.193Z,10.67
2018-06-09T18:55:34.275Z,15.43
2018-06-09T18:57:36.447Z,20.07
2018-06-09T18:59:38.605Z,12.80
2018-06-09T19:01:40.717Z,13.30
2018-06-09T19:03:42.830Z,17.90
2018-06-09T19:05:45.079Z,13.03
2018-06-09T19:07:47.292Z,12.30
2018-06-09T19:09:49.507Z,13.87
2018-06-09T19:11:51.680Z,24.17
2018-06-09T19:13:53.758Z,12.77
2018-06-09T19:15:55.857Z,13.60
2018-06-09T19:17:58.037Z,19.73
2018-06-09T19:20:00.498Z,12.50
2018-06-09T19:22:02.699Z,17.83
2018-06-09T19:24:05.160Z,13.97
2018-06-09T19:26:07.272Z,13.53
2018-06-09T19:28:09.385Z,18.90
2018-06-09T19:30:11.493Z,13.33
2018-06-09T19:32:13.586Z,15.90
2018-06-09T19:34:15.850Z,11.17
2018-06-09T19:36:17.976Z,18.43
2018-06-09T19:38:20.150Z,16.30
2018-06-09T19:40:22.230Z,9.70
2018-06-09T19:42:24.337Z,17.00
2018-06-09T19:44:26.461Z,12.80
2018-06-09T19:46:28.688Z,12.23
2018-06-09T19:48:30.814Z,18.50
2018-06-09T19:50:32.944Z,15.10
2018-06-09T19:52:35.090Z,14.20
2018-06-09T19:54:37.180Z,12.33
2018-06-09T19:56:39.297Z,12.03
2018-06-09T19:58:41.461Z,26.07
2018-06-09T20:00:43.537Z,17.20
2018-06-09T20:02:45.632Z,20.27
2018-06-09T20:04:47.836Z,11.80
2018-06-09T20:06:49.917Z,17.53
2018-06-09T20:08:52.285Z,9.90
2018-06-09T20:10:54.334Z,15.73
2018-06-09T20:12:56.496Z,11.07
2018-06-09T20:14:58.584Z,15.50
2018-06-09T20:17:00.720Z,14.30
2018-06-09T20:19:02.901Z,14.70
2018-06-09T20:21:05.003Z,13.00
2018-06-09T20:23:07.276Z,11.53
2018-06-09T20:25:09.417Z,16.43
2018-06-09T20:27:11.536Z,17.77
2018-06-09T20:29:13.634Z,12.13
2018-06-09T20:31:15.790Z,17.90
2018-06-09T20:33:17.893Z,15.90
2018-06-09T20:35:19.997Z,15.47
2018-06-09T20:37:22.088Z,15.13
2018-06-09T20:39:24.183Z,14.37
2018-06-09T20:41:26.487Z,21.93
2018-06-09T20:43:28.697Z,13.27
2018-06-09T20:45:30.830Z,14.90
2018-06-09T20:47:32.934Z,22.97
2018-06-09T20:49:35.063Z,13.47
2018-06-09T20:51:37.184Z,14.17
2018-06-09T20:53:39.381Z,15.07
2018-06-09T20:55:41.545Z,22.83
2018-06-09T20:57:43.660Z,22.60
2018-06-09T20:59:45.786Z,14.10
2018-06-09T21:01:47.861Z,14.20
2018-06-09T21:03:50.206Z,16.83
2018-06-09T21:05:52.416Z,16.43
2018-06-09T21:07:54.599Z,13.40
2018-06-09T21:09:56.772Z,14.50
2018-06-09T21:11:58.937Z,16.20
2018-06-09T21:14:01.095Z,13.80
2018-06-09T21:16:03.307Z,15.53
2018-06-09T21:18:05.535Z,20.10
2018-06-09T21:20:07.978Z,21.83
2018-06-09T21:22:10.103Z,24.50
2018-06-09T21:24:12.257Z,22.07
2018-06-09T21:26:14.435Z,34.13
2018-06-09T21:28:22.377Z,31.37
2018-06-09T21:30:30.107Z,33.33
2018-06-09T21:32:38.048Z,22.13
2018-06-09T21:34:57.658Z,16.43
2018-06-09T21:37:22.653Z,27.73
2018-06-09T21:39:32.566Z,15.47
2018-06-09T21:41:40.591Z,15.43
2018-06-09T21:43:48.613Z,16.90
2018-06-09T21:45:51.244Z,22.07
2018-06-09T21:47:53.377Z,14.43
2018-06-09T21:49:55.636Z,21.13
2018-06-09T21:51:57.893Z,17.23
2018-06-09T21:54:00.077Z,13.80
2018-06-09T21:56:02.583Z,14.17
2018-06-09T21:58:04.761Z,13.10
2018-06-09T22:00:07.249Z,17.30
2018-06-09T22:02:09.337Z,16.63
2018-06-09T22:04:11.561Z,27.10
2018-06-09T22:06:13.690Z,15.67
2018-06-09T22:08:15.802Z,17.10
2018-06-09T22:10:18.038Z,12.03
2018-06-09T22:12:20.204Z,17.67
2018-06-09T22:14:22.459Z,11.97
2018-06-09T22:16:24.846Z,22.20
2018-06-09T22:18:26.993Z,14.17
2018-06-09T22:20:29.183Z,14.20
2018-06-09T22:22:31.797Z,16.70
2018-06-09T22:24:34.054Z,15.23
2018-06-09T22:26:36.222Z,14.63
2018-06-09T22:28:38.500Z,13.73
2018-06-09T22:30:40.635Z,18.10
2018-06-09T22:32:42.760Z,24.10
2018-06-09T22:34:45.003Z,18.13
2018-06-09T22:36:47.322Z,14.07
2018-06-09T22:41:25.639Z,19.12
2018-06-09T22:43:27.827Z,14.17
2018-06-09T22:45:30.096Z,23.77
2018-06-09T22:47:32.255Z,16.07
2018-06-09T22:49:34.543Z,13.10
2018-06-09T22:51:36.753Z,12.03
2018-06-09T22:53:38.961Z,13.40
2018-06-09T22:55:42.137Z,16.33
2018-06-09T22:57:49.143Z,12.20
2018-06-09T22:59:51.448Z,15.17
